sensor_id;sensor_type;location;lat;lon;timestamp;temperature;humidity
38359;DHT22;42072;48.044;14.416;2023-05-28T00:01:36;13.20;99.90
38359;DHT22;42072;48.044;14.416;2023-05-28T00:04:04;13.10;99.90
38359;DHT22;42072;48.044;14.416;2023-05-28T00:06:31;13.00;99.90
38359;DHT22;42072;48.044;14.416;2023-05-28T00:08:59;13.10;99.90
38359;DHT22;42072;48.044;14.416;2023-05-28T00:11:26;13.00;99.90
38359;DHT22;42072;48.044;14.416;2023-05-28T00:13:53;13.00;99.90
38359;DHT22;42072;48.044;14.416;2023-05-28T00:16:20;13.00;99.90
38359;DHT22;42072;48.044;14.416;2023-05-28T00:18:48;13.00;99.90
38359;DHT22;42072;48.044;14.416;2023-05-28T00:21:15;13.00;99.90
38359;DHT22;42072;48.044;14.416;2023-05-28T00:23:43;12.80;99.90
38359;DHT22;42072;48.044;14.416;2023-05-28T00:26:10;12.80;99.90
38359;DHT22;42072;48.044;14.416;2023-05-28T00:28:38;12.70;99.90
38359;DHT22;42072;48.044;14.416;2023-05-28T00:31:05;12.70;99.90
38359;DHT22;42072;48.044;14.416;2023-05-28T00:33:32;12.70;99.90
38359;DHT22;42072;48.044;14.416;2023-05-28T00:36:00;12.60;99.90
38359;DHT22;42072;48.044;14.416;2023-05-28T00:38:27;12.50;99.90
38359;DHT22;42072;48.044;14.416;2023-05-28T00:40:54;12.50;99.90
38359;DHT22;42072;48.044;14.416;2023-05-28T00:43:21;12.50;99.90
38359;DHT22;42072;48.044;14.416;2023-05-28T00:45:52;12.50;99.90
38359;DHT22;42072;48.044;14.416;2023-05-28T00:48:20;12.50;99.90
38359;DHT22;42072;48.044;14.416;2023-05-28T00:50:48;12.50;99.90
38359;DHT22;42072;48.044;14.416;2023-05-28T00:53:15;12.40;99.90
38359;DHT22;42072;48.044;14.416;2023-05-28T00:55:44;12.30;99.90
38359;DHT22;42072;48.044;14.416;2023-05-28T00:58:11;12.30;99.90
38359;DHT22;42072;48.044;14.416;2023-05-28T01:00:39;12.30;99.90
38359;DHT22;42072;48.044;14.416;2023-05-28T01:03:09;12.30;99.90
38359;DHT22;42072;48.044;14.416;2023-05-28T01:05:37;12.30;99.90
38359;DHT22;42072;48.044;14.416;2023-05-28T01:08:06;12.30;99.90
38359;DHT22;42072;48.044;14.416;2023-05-28T01:10:34;12.20;99.90
38359;DHT22;42072;48.044;14.416;2023-05-28T01:13:04;12.20;99.90
38359;DHT22;42072;48.044;14.416;2023-05-28T01:15:32;12.20;99.90
38359;DHT22;42072;48.044;14.416;2023-05-28T01:18:01;12.20;99.90
38359;DHT22;42072;48.044;14.416;2023-05-28T01:20:30;12.20;99.90
38359;DHT22;42072;48.044;14.416;2023-05-28T01:23:06;12.20;99.90
38359;DHT22;42072;48.044;14.416;2023-05-28T01:25:34;12.20;99.90
38359;DHT22;42072;48.044;14.416;2023-05-28T01:28:14;12.10;99.90
38359;DHT22;42072;48.044;14.416;2023-05-28T01:30:41;12.10;99.90
38359;DHT22;42072;48.044;14.416;2023-05-28T01:33:10;12.00;99.90
38359;DHT22;42072;48.044;14.416;2023-05-28T01:35:39;12.00;99.90
38359;DHT22;42072;48.044;14.416;2023-05-28T01:38:09;12.00;99.90
38359;DHT22;42072;48.044;14.416;2023-05-28T01:40:45;11.90;99.90
38359;DHT22;42072;48.044;14.416;2023-05-28T01:43:13;11.90;99.90
38359;DHT22;42072;48.044;14.416;2023-05-28T01:45:42;11.90;99.90
38359;DHT22;42072;48.044;14.416;2023-05-28T01:48:10;11.90;99.90
38359;DHT22;42072;48.044;14.416;2023-05-28T01:50:38;11.90;99.90
38359;DHT22;42072;48.044;14.416;2023-05-28T01:53:05;11.80;99.90
38359;DHT22;42072;48.044;14.416;2023-05-28T01:55:32;11.80;99.90
38359;DHT22;42072;48.044;14.416;2023-05-28T01:58:00;11.80;99.90
38359;DHT22;42072;48.044;14.416;2023-05-28T02:00:27;11.70;99.90
38359;DHT22;42072;48.044;14.416;2023-05-28T02:02:54;11.70;99.90
38359;DHT22;42072;48.044;14.416;2023-05-28T02:05:21;11.60;99.90
38359;DHT22;42072;48.044;14.416;2023-05-28T02:07:48;11.60;99.90
38359;DHT22;42072;48.044;14.416;2023-05-28T02:10:16;11.60;99.90
38359;DHT22;42072;48.044;14.416;2023-05-28T02:12:43;11.60;99.90
38359;DHT22;42072;48.044;14.416;2023-05-28T02:15:10;11.60;99.90
38359;DHT22;42072;48.044;14.416;2023-05-28T02:17:38;11.60;99.90
38359;DHT22;42072;48.044;14.416;2023-05-28T02:20:05;11.60;99.90
38359;DHT22;42072;48.044;14.416;2023-05-28T02:22:33;11.60;99.90
38359;DHT22;42072;48.044;14.416;2023-05-28T02:25:00;11.50;99.90
38359;DHT22;42072;48.044;14.416;2023-05-28T02:27:27;11.40;99.90
38359;DHT22;42072;48.044;14.416;2023-05-28T02:29:54;11.40;99.90
38359;DHT22;42072;48.044;14.416;2023-05-28T02:32:22;11.40;99.90
38359;DHT22;42072;48.044;14.416;2023-05-28T02:34:50;11.40;99.90
38359;DHT22;42072;48.044;14.416;2023-05-28T02:37:17;11.30;99.90
38359;DHT22;42072;48.044;14.416;2023-05-28T02:39:44;11.40;99.90
38359;DHT22;42072;48.044;14.416;2023-05-28T02:42:12;11.40;99.90
38359;DHT22;42072;48.044;14.416;2023-05-28T02:44:39;11.40;99.90
38359;DHT22;42072;48.044;14.416;2023-05-28T02:47:06;11.30;99.90
38359;DHT22;42072;48.044;14.416;2023-05-28T02:49:33;11.30;99.90
38359;DHT22;42072;48.044;14.416;2023-05-28T02:52:00;11.20;99.90
38359;DHT22;42072;48.044;14.416;2023-05-28T02:54:28;11.20;99.90
38359;DHT22;42072;48.044;14.416;2023-05-28T02:56:57;11.20;99.90
38359;DHT22;42072;48.044;14.416;2023-05-28T02:59:25;11.10;99.90
38359;DHT22;42072;48.044;14.416;2023-05-28T03:01:52;11.10;99.90
38359;DHT22;42072;48.044;14.416;2023-05-28T03:04:19;11.10;99.90
38359;DHT22;42072;48.044;14.416;2023-05-28T03:06:46;11.10;99.90
38359;DHT22;42072;48.044;14.416;2023-05-28T03:09:14;11.10;99.90
38359;DHT22;42072;48.044;14.416;2023-05-28T03:11:41;11.00;99.90
38359;DHT22;42072;48.044;14.416;2023-05-28T03:14:08;11.10;99.90
38359;DHT22;42072;48.044;14.416;2023-05-28T03:16:35;11.10;99.90
38359;DHT22;42072;48.044;14.416;2023-05-28T03:19:03;11.10;99.90
38359;DHT22;42072;48.044;14.416;2023-05-28T03:21:31;11.10;99.90
38359;DHT22;42072;48.044;14.416;2023-05-28T03:23:58;11.10;99.90
38359;DHT22;42072;48.044;14.416;2023-05-28T03:26:25;11.10;99.90
38359;DHT22;42072;48.044;14.416;2023-05-28T03:28:53;11.00;1.00
38359;DHT22;42072;48.044;14.416;2023-05-28T03:31:20;11.10;1.00
38359;DHT22;42072;48.044;14.416;2023-05-28T03:33:47;11.10;1.00
38359;DHT22;42072;48.044;14.416;2023-05-28T03:36:15;11.10;1.00
38359;DHT22;42072;48.044;14.416;2023-05-28T03:38:42;11.20;99.90
38359;DHT22;42072;48.044;14.416;2023-05-28T03:41:09;11.10;99.90
38359;DHT22;42072;48.044;14.416;2023-05-28T03:43:36;11.10;1.00
38359;DHT22;42072;48.044;14.416;2023-05-28T03:46:03;11.10;1.00
38359;DHT22;42072;48.044;14.416;2023-05-28T03:48:31;11.10;1.00
38359;DHT22;42072;48.044;14.416;2023-05-28T03:50:58;11.10;1.00
38359;DHT22;42072;48.044;14.416;2023-05-28T03:53:27;11.10;1.00
38359;DHT22;42072;48.044;14.416;2023-05-28T03:55:54;11.00;1.00
38359;DHT22;42072;48.044;14.416;2023-05-28T03:58:22;11.00;1.00
38359;DHT22;42072;48.044;14.416;2023-05-28T04:00:49;11.00;1.00
38359;DHT22;42072;48.044;14.416;2023-05-28T04:03:17;11.00;1.00
38359;DHT22;42072;48.044;14.416;2023-05-28T04:05:44;11.00;1.00
38359;DHT22;42072;48.044;14.416;2023-05-28T04:08:11;11.00;1.00
38359;DHT22;42072;48.044;14.416;2023-05-28T04:10:39;11.10;1.00
38359;DHT22;42072;48.044;14.416;2023-05-28T04:13:06;11.20;1.00
38359;DHT22;42072;48.044;14.416;2023-05-28T04:15:35;11.20;1.00
38359;DHT22;42072;48.044;14.416;2023-05-28T04:18:02;11.20;1.00
38359;DHT22;42072;48.044;14.416;2023-05-28T04:20:29;11.20;1.00
38359;DHT22;42072;48.044;14.416;2023-05-28T04:22:57;11.30;1.00
38359;DHT22;42072;48.044;14.416;2023-05-28T04:25:24;11.30;1.00
38359;DHT22;42072;48.044;14.416;2023-05-28T04:27:51;12.60;1.00
38359;DHT22;42072;48.044;14.416;2023-05-28T04:30:18;14.70;99.90
38359;DHT22;42072;48.044;14.416;2023-05-28T04:32:45;16.30;99.90
38359;DHT22;42072;48.044;14.416;2023-05-28T04:35:15;17.50;99.90
38359;DHT22;42072;48.044;14.416;2023-05-28T04:37:42;18.40;99.90
38359;DHT22;42072;48.044;14.416;2023-05-28T04:40:11;19.10;99.90
38359;DHT22;42072;48.044;14.416;2023-05-28T04:42:41;19.60;99.90
38359;DHT22;42072;48.044;14.416;2023-05-28T04:45:10;20.10;99.90
38359;DHT22;42072;48.044;14.416;2023-05-28T04:47:37;20.60;99.90
38359;DHT22;42072;48.044;14.416;2023-05-28T04:50:05;21.20;99.90
38359;DHT22;42072;48.044;14.416;2023-05-28T04:52:34;21.60;99.90
38359;DHT22;42072;48.044;14.416;2023-05-28T04:55:02;22.20;99.90
38359;DHT22;42072;48.044;14.416;2023-05-28T04:57:32;22.00;99.90
38359;DHT22;42072;48.044;14.416;2023-05-28T05:00:00;22.70;99.90
38359;DHT22;42072;48.044;14.416;2023-05-28T05:02:27;23.50;99.90
38359;DHT22;42072;48.044;14.416;2023-05-28T05:04:55;23.70;99.90
38359;DHT22;42072;48.044;14.416;2023-05-28T05:07:23;24.00;99.90
38359;DHT22;42072;48.044;14.416;2023-05-28T05:09:51;24.50;99.90
38359;DHT22;42072;48.044;14.416;2023-05-28T05:12:18;24.70;99.90
38359;DHT22;42072;48.044;14.416;2023-05-28T05:14:45;24.70;99.90
38359;DHT22;42072;48.044;14.416;2023-05-28T05:17:14;24.20;99.90
38359;DHT22;42072;48.044;14.416;2023-05-28T05:19:41;23.90;99.90
38359;DHT22;42072;48.044;14.416;2023-05-28T05:22:08;24.00;99.90
38359;DHT22;42072;48.044;14.416;2023-05-28T05:24:35;24.00;99.90
38359;DHT22;42072;48.044;14.416;2023-05-28T05:27:02;23.70;99.90
38359;DHT22;42072;48.044;14.416;2023-05-28T05:29:30;24.20;99.90
38359;DHT22;42072;48.044;14.416;2023-05-28T05:31:57;23.50;99.90
38359;DHT22;42072;48.044;14.416;2023-05-28T05:34:25;23.50;99.90
38359;DHT22;42072;48.044;14.416;2023-05-28T05:36:52;23.90;99.90
38359;DHT22;42072;48.044;14.416;2023-05-28T05:39:19;23.40;99.90
38359;DHT22;42072;48.044;14.416;2023-05-28T05:41:46;23.70;99.90
38359;DHT22;42072;48.044;14.416;2023-05-28T05:44:14;22.90;99.90
38359;DHT22;42072;48.044;14.416;2023-05-28T05:46:41;23.60;99.90
38359;DHT22;42072;48.044;14.416;2023-05-28T05:49:09;23.00;99.90
38359;DHT22;42072;48.044;14.416;2023-05-28T05:51:36;23.60;99.90
38359;DHT22;42072;48.044;14.416;2023-05-28T05:54:04;23.60;99.90
38359;DHT22;42072;48.044;14.416;2023-05-28T05:56:31;23.70;99.90
38359;DHT22;42072;48.044;14.416;2023-05-28T05:58:58;23.20;99.90
38359;DHT22;42072;48.044;14.416;2023-05-28T06:01:26;23.60;99.90
38359;DHT22;42072;48.044;14.416;2023-05-28T06:03:53;24.10;99.90
38359;DHT22;42072;48.044;14.416;2023-05-28T06:06:20;24.40;99.90
38359;DHT22;42072;48.044;14.416;2023-05-28T06:08:47;23.00;99.90
38359;DHT22;42072;48.044;14.416;2023-05-28T06:11:15;22.20;99.90
38359;DHT22;42072;48.044;14.416;2023-05-28T06:13:42;21.80;99.90
38359;DHT22;42072;48.044;14.416;2023-05-28T06:16:10;22.50;99.90
38359;DHT22;42072;48.044;14.416;2023-05-28T06:18:38;23.30;99.90
38359;DHT22;42072;48.044;14.416;2023-05-28T06:21:05;22.60;99.90
38359;DHT22;42072;48.044;14.416;2023-05-28T06:23:34;21.20;99.90
38359;DHT22;42072;48.044;14.416;2023-05-28T06:26:02;19.70;99.90
38359;DHT22;42072;48.044;14.416;2023-05-28T06:28:30;18.30;99.90
38359;DHT22;42072;48.044;14.416;2023-05-28T06:30:57;17.70;99.90
38359;DHT22;42072;48.044;14.416;2023-05-28T06:33:25;17.30;99.90
38359;DHT22;42072;48.044;14.416;2023-05-28T06:35:53;17.10;99.90
38359;DHT22;42072;48.044;14.416;2023-05-28T06:38:21;17.30;99.90
38359;DHT22;42072;48.044;14.416;2023-05-28T06:40:48;17.40;99.90
38359;DHT22;42072;48.044;14.416;2023-05-28T06:43:15;17.50;99.90
38359;DHT22;42072;48.044;14.416;2023-05-28T06:45:43;17.60;99.90
38359;DHT22;42072;48.044;14.416;2023-05-28T06:48:10;17.50;99.90
38359;DHT22;42072;48.044;14.416;2023-05-28T06:50:37;17.70;99.90
38359;DHT22;42072;48.044;14.416;2023-05-28T06:53:04;17.60;99.90
38359;DHT22;42072;48.044;14.416;2023-05-28T06:55:32;17.40;99.90
38359;DHT22;42072;48.044;14.416;2023-05-28T06:57:59;17.50;99.90
38359;DHT22;42072;48.044;14.416;2023-05-28T07:00:26;17.40;99.90
38359;DHT22;42072;48.044;14.416;2023-05-28T07:02:54;17.20;99.90
38359;DHT22;42072;48.044;14.416;2023-05-28T07:05:21;17.40;99.90
38359;DHT22;42072;48.044;14.416;2023-05-28T07:07:48;17.50;99.90
38359;DHT22;42072;48.044;14.416;2023-05-28T07:10:16;17.70;99.90
38359;DHT22;42072;48.044;14.416;2023-05-28T07:12:44;18.00;99.90
38359;DHT22;42072;48.044;14.416;2023-05-28T07:15:11;17.90;99.90
38359;DHT22;42072;48.044;14.416;2023-05-28T07:17:38;17.90;99.90
38359;DHT22;42072;48.044;14.416;2023-05-28T07:20:06;17.90;99.90
38359;DHT22;42072;48.044;14.416;2023-05-28T07:22:34;17.80;99.90
38359;DHT22;42072;48.044;14.416;2023-05-28T07:25:01;17.80;99.90
38359;DHT22;42072;48.044;14.416;2023-05-28T07:27:28;17.70;99.90
38359;DHT22;42072;48.044;14.416;2023-05-28T07:29:56;17.70;99.90
38359;DHT22;42072;48.044;14.416;2023-05-28T07:32:23;17.90;99.90
38359;DHT22;42072;48.044;14.416;2023-05-28T07:34:51;18.30;99.90
38359;DHT22;42072;48.044;14.416;2023-05-28T07:37:18;18.20;99.90
38359;DHT22;42072;48.044;14.416;2023-05-28T07:39:45;18.30;99.90
38359;DHT22;42072;48.044;14.416;2023-05-28T07:42:13;18.40;99.90
38359;DHT22;42072;48.044;14.416;2023-05-28T07:44:40;18.50;99.90
38359;DHT22;42072;48.044;14.416;2023-05-28T07:47:08;18.90;99.90
38359;DHT22;42072;48.044;14.416;2023-05-28T07:49:35;19.00;99.90
38359;DHT22;42072;48.044;14.416;2023-05-28T07:52:03;19.20;99.90
38359;DHT22;42072;48.044;14.416;2023-05-28T07:54:30;19.10;99.90
38359;DHT22;42072;48.044;14.416;2023-05-28T07:56:57;19.10;99.90
38359;DHT22;42072;48.044;14.416;2023-05-28T07:59:27;18.80;99.90
38359;DHT22;42072;48.044;14.416;2023-05-28T08:01:54;18.80;99.90
38359;DHT22;42072;48.044;14.416;2023-05-28T08:04:22;18.90;99.90
38359;DHT22;42072;48.044;14.416;2023-05-28T08:06:49;18.90;99.90
38359;DHT22;42072;48.044;14.416;2023-05-28T08:09:17;19.00;99.90
38359;DHT22;42072;48.044;14.416;2023-05-28T08:11:45;19.00;99.90
38359;DHT22;42072;48.044;14.416;2023-05-28T08:14:12;19.00;99.90
38359;DHT22;42072;48.044;14.416;2023-05-28T08:16:39;19.30;99.90
38359;DHT22;42072;48.044;14.416;2023-05-28T08:19:07;19.00;99.90
38359;DHT22;42072;48.044;14.416;2023-05-28T08:21:34;19.10;99.90
38359;DHT22;42072;48.044;14.416;2023-05-28T08:24:05;19.00;99.90
38359;DHT22;42072;48.044;14.416;2023-05-28T08:26:33;19.00;99.90
38359;DHT22;42072;48.044;14.416;2023-05-28T08:29:00;19.20;99.90
38359;DHT22;42072;48.044;14.416;2023-05-28T08:31:27;19.40;99.90
38359;DHT22;42072;48.044;14.416;2023-05-28T08:33:55;19.40;99.90
38359;DHT22;42072;48.044;14.416;2023-05-28T08:36:22;19.30;99.90
38359;DHT22;42072;48.044;14.416;2023-05-28T08:38:49;19.70;99.90
38359;DHT22;42072;48.044;14.416;2023-05-28T08:41:17;20.10;99.90
38359;DHT22;42072;48.044;14.416;2023-05-28T08:43:44;19.90;99.90
38359;DHT22;42072;48.044;14.416;2023-05-28T08:46:12;19.90;99.90
38359;DHT22;42072;48.044;14.416;2023-05-28T08:48:41;20.00;99.90
38359;DHT22;42072;48.044;14.416;2023-05-28T08:51:09;20.10;99.90
38359;DHT22;42072;48.044;14.416;2023-05-28T08:53:42;20.30;99.90
38359;DHT22;42072;48.044;14.416;2023-05-28T08:56:11;19.90;99.90
38359;DHT22;42072;48.044;14.416;2023-05-28T08:58:39;19.90;99.90
38359;DHT22;42072;48.044;14.416;2023-05-28T09:01:08;19.90;99.90
38359;DHT22;42072;48.044;14.416;2023-05-28T09:03:38;19.90;99.90
38359;DHT22;42072;48.044;14.416;2023-05-28T09:06:08;20.00;99.90
38359;DHT22;42072;48.044;14.416;2023-05-28T09:08:36;20.20;99.90
38359;DHT22;42072;48.044;14.416;2023-05-28T09:11:11;20.40;99.90
38359;DHT22;42072;48.044;14.416;2023-05-28T09:13:43;20.70;99.90
38359;DHT22;42072;48.044;14.416;2023-05-28T09:16:11;20.90;99.90
38359;DHT22;42072;48.044;14.416;2023-05-28T09:18:41;21.10;99.90
38359;DHT22;42072;48.044;14.416;2023-05-28T09:21:09;21.20;99.90
38359;DHT22;42072;48.044;14.416;2023-05-28T09:23:43;20.70;99.90
38359;DHT22;42072;48.044;14.416;2023-05-28T09:26:12;20.70;99.90
38359;DHT22;42072;48.044;14.416;2023-05-28T09:28:41;20.60;99.90
38359;DHT22;42072;48.044;14.416;2023-05-28T09:31:11;20.80;99.90
38359;DHT22;42072;48.044;14.416;2023-05-28T09:33:42;21.00;99.90
38359;DHT22;42072;48.044;14.416;2023-05-28T09:36:10;21.00;99.90
38359;DHT22;42072;48.044;14.416;2023-05-28T09:38:39;21.40;99.90
38359;DHT22;42072;48.044;14.416;2023-05-28T09:41:20;21.60;99.90
38359;DHT22;42072;48.044;14.416;2023-05-28T09:44:02;21.60;99.90
38359;DHT22;42072;48.044;14.416;2023-05-28T09:46:33;21.60;99.90
38359;DHT22;42072;48.044;14.416;2023-05-28T09:49:03;21.50;99.90
38359;DHT22;42072;48.044;14.416;2023-05-28T09:51:32;21.60;99.90
38359;DHT22;42072;48.044;14.416;2023-05-28T09:54:02;21.90;99.90
38359;DHT22;42072;48.044;14.416;2023-05-28T09:56:31;22.00;99.90
38359;DHT22;42072;48.044;14.416;2023-05-28T09:59:06;22.00;99.90
38359;DHT22;42072;48.044;14.416;2023-05-28T10:01:56;22.20;99.90
38359;DHT22;42072;48.044;14.416;2023-05-28T10:04:33;22.50;99.90
38359;DHT22;42072;48.044;14.416;2023-05-28T10:07:05;22.00;99.90
38359;DHT22;42072;48.044;14.416;2023-05-28T10:09:33;22.20;99.90
38359;DHT22;42072;48.044;14.416;2023-05-28T10:12:22;22.40;99.90
38359;DHT22;42072;48.044;14.416;2023-05-28T10:14:51;22.50;99.90
38359;DHT22;42072;48.044;14.416;2023-05-28T10:17:19;22.50;99.90
38359;DHT22;42072;48.044;14.416;2023-05-28T10:19:47;22.70;99.90
38359;DHT22;42072;48.044;14.416;2023-05-28T10:22:16;22.60;99.90
38359;DHT22;42072;48.044;14.416;2023-05-28T10:24:43;22.70;99.90
38359;DHT22;42072;48.044;14.416;2023-05-28T10:27:15;22.90;98.50
38359;DHT22;42072;48.044;14.416;2023-05-28T10:29:44;22.70;98.40
38359;DHT22;42072;48.044;14.416;2023-05-28T10:32:16;22.60;98.50
38359;DHT22;42072;48.044;14.416;2023-05-28T10:34:44;22.20;99.90
38359;DHT22;42072;48.044;14.416;2023-05-28T10:37:12;22.30;99.70
38359;DHT22;42072;48.044;14.416;2023-05-28T10:39:41;22.60;99.90
38359;DHT22;42072;48.044;14.416;2023-05-28T10:42:13;22.70;96.90
38359;DHT22;42072;48.044;14.416;2023-05-28T10:47:34;22.40;94.80
38359;DHT22;42072;48.044;14.416;2023-05-28T10:50:11;22.30;93.60
38359;DHT22;42072;48.044;14.416;2023-05-28T10:53:03;22.50;95.30
38359;DHT22;42072;48.044;14.416;2023-05-28T10:55:55;22.60;95.00
38359;DHT22;42072;48.044;14.416;2023-05-28T10:58:27;22.50;95.60
38359;DHT22;42072;48.044;14.416;2023-05-28T11:06:11;23.20;91.80
38359;DHT22;42072;48.044;14.416;2023-05-28T11:08:47;23.10;86.40
38359;DHT22;42072;48.044;14.416;2023-05-28T11:11:16;22.80;72.60
38359;DHT22;42072;48.044;14.416;2023-05-28T11:13:48;22.90;82.80
38359;DHT22;42072;48.044;14.416;2023-05-28T11:16:17;23.00;84.30
38359;DHT22;42072;48.044;14.416;2023-05-28T11:19:06;22.90;81.40
38359;DHT22;42072;48.044;14.416;2023-05-28T11:21:51;23.30;86.90
38359;DHT22;42072;48.044;14.416;2023-05-28T11:24:19;23.50;79.00
38359;DHT22;42072;48.044;14.416;2023-05-28T11:26:46;23.60;73.00
38359;DHT22;42072;48.044;14.416;2023-05-28T11:29:15;23.50;78.10
38359;DHT22;42072;48.044;14.416;2023-05-28T11:31:42;23.60;73.40
38359;DHT22;42072;48.044;14.416;2023-05-28T11:34:09;23.50;69.00
38359;DHT22;42072;48.044;14.416;2023-05-28T11:36:39;23.30;80.10
38359;DHT22;42072;48.044;14.416;2023-05-28T11:39:06;23.10;81.40
38359;DHT22;42072;48.044;14.416;2023-05-28T11:41:34;23.20;84.20
38359;DHT22;42072;48.044;14.416;2023-05-28T11:44:02;23.10;84.50
38359;DHT22;42072;48.044;14.416;2023-05-28T11:46:30;23.40;86.90
38359;DHT22;42072;48.044;14.416;2023-05-28T11:48:57;23.60;86.80
38359;DHT22;42072;48.044;14.416;2023-05-28T11:51:25;23.70;87.50
38359;DHT22;42072;48.044;14.416;2023-05-28T11:53:52;23.80;84.50
38359;DHT22;42072;48.044;14.416;2023-05-28T11:56:19;24.20;85.00
38359;DHT22;42072;48.044;14.416;2023-05-28T11:58:47;24.30;81.50
38359;DHT22;42072;48.044;14.416;2023-05-28T12:01:16;24.20;75.60
38359;DHT22;42072;48.044;14.416;2023-05-28T12:03:44;24.30;77.80
38359;DHT22;42072;48.044;14.416;2023-05-28T12:06:12;24.50;83.80
38359;DHT22;42072;48.044;14.416;2023-05-28T12:08:48;24.30;81.80
38359;DHT22;42072;48.044;14.416;2023-05-28T12:11:15;24.20;83.00
38359;DHT22;42072;48.044;14.416;2023-05-28T12:13:43;24.00;87.30
38359;DHT22;42072;48.044;14.416;2023-05-28T12:16:11;23.90;90.20
38359;DHT22;42072;48.044;14.416;2023-05-28T12:18:41;24.30;89.20
38359;DHT22;42072;48.044;14.416;2023-05-28T12:21:13;23.90;84.60
38359;DHT22;42072;48.044;14.416;2023-05-28T12:23:46;23.80;85.00
38359;DHT22;42072;48.044;14.416;2023-05-28T12:26:14;24.20;86.70
38359;DHT22;42072;48.044;14.416;2023-05-28T12:28:42;24.00;80.20
38359;DHT22;42072;48.044;14.416;2023-05-28T12:31:09;24.20;85.40
38359;DHT22;42072;48.044;14.416;2023-05-28T12:33:36;24.60;80.20
38359;DHT22;42072;48.044;14.416;2023-05-28T12:36:04;24.60;75.40
38359;DHT22;42072;48.044;14.416;2023-05-28T12:38:32;24.40;75.70
38359;DHT22;42072;48.044;14.416;2023-05-28T12:40:59;24.20;78.00
38359;DHT22;42072;48.044;14.416;2023-05-28T12:43:27;23.80;68.00
38359;DHT22;42072;48.044;14.416;2023-05-28T12:45:54;23.90;67.70
38359;DHT22;42072;48.044;14.416;2023-05-28T12:48:21;23.70;82.80
38359;DHT22;42072;48.044;14.416;2023-05-28T12:50:49;23.80;84.40
38359;DHT22;42072;48.044;14.416;2023-05-28T12:53:16;24.20;83.50
38359;DHT22;42072;48.044;14.416;2023-05-28T12:55:43;24.50;83.60
38359;DHT22;42072;48.044;14.416;2023-05-28T12:58:12;24.40;80.50
38359;DHT22;42072;48.044;14.416;2023-05-28T13:00:40;24.60;79.70
38359;DHT22;42072;48.044;14.416;2023-05-28T13:03:07;24.50;77.30
38359;DHT22;42072;48.044;14.416;2023-05-28T13:05:34;24.80;76.70
38359;DHT22;42072;48.044;14.416;2023-05-28T13:08:02;24.90;77.20
38359;DHT22;42072;48.044;14.416;2023-05-28T13:10:30;25.10;77.10
38359;DHT22;42072;48.044;14.416;2023-05-28T13:12:57;25.20;75.30
38359;DHT22;42072;48.044;14.416;2023-05-28T13:15:25;25.10;76.00
38359;DHT22;42072;48.044;14.416;2023-05-28T13:17:52;24.90;81.00
38359;DHT22;42072;48.044;14.416;2023-05-28T13:20:20;24.70;82.60
38359;DHT22;42072;48.044;14.416;2023-05-28T13:22:47;24.50;78.20
38359;DHT22;42072;48.044;14.416;2023-05-28T13:25:15;24.70;79.60
38359;DHT22;42072;48.044;14.416;2023-05-28T13:27:42;24.50;83.20
38359;DHT22;42072;48.044;14.416;2023-05-28T13:30:10;24.60;83.10
38359;DHT22;42072;48.044;14.416;2023-05-28T13:32:37;25.00;82.40
38359;DHT22;42072;48.044;14.416;2023-05-28T13:35:05;25.30;79.70
38359;DHT22;42072;48.044;14.416;2023-05-28T13:37:32;25.70;76.20
38359;DHT22;42072;48.044;14.416;2023-05-28T13:40:00;25.60;79.10
38359;DHT22;42072;48.044;14.416;2023-05-28T13:42:27;25.40;78.00
38359;DHT22;42072;48.044;14.416;2023-05-28T13:44:55;25.60;82.20
38359;DHT22;42072;48.044;14.416;2023-05-28T13:47:23;25.60;82.40
38359;DHT22;42072;48.044;14.416;2023-05-28T13:49:50;25.00;84.20
38359;DHT22;42072;48.044;14.416;2023-05-28T13:52:17;24.60;87.20
38359;DHT22;42072;48.044;14.416;2023-05-28T13:54:45;24.60;88.70
38359;DHT22;42072;48.044;14.416;2023-05-28T13:57:12;24.70;92.20
38359;DHT22;42072;48.044;14.416;2023-05-28T13:59:39;25.00;90.70
38359;DHT22;42072;48.044;14.416;2023-05-28T14:02:07;25.00;89.80
38359;DHT22;42072;48.044;14.416;2023-05-28T14:04:35;24.50;90.10
38359;DHT22;42072;48.044;14.416;2023-05-28T14:07:02;24.40;92.40
38359;DHT22;42072;48.044;14.416;2023-05-28T14:09:29;24.60;93.20
38359;DHT22;42072;48.044;14.416;2023-05-28T14:11:56;24.90;94.70
38359;DHT22;42072;48.044;14.416;2023-05-28T14:14:27;25.20;90.90
38359;DHT22;42072;48.044;14.416;2023-05-28T14:16:54;25.50;88.90
38359;DHT22;42072;48.044;14.416;2023-05-28T14:19:21;25.20;90.10
38359;DHT22;42072;48.044;14.416;2023-05-28T14:21:48;25.00;91.50
38359;DHT22;42072;48.044;14.416;2023-05-28T14:24:16;25.00;92.20
38359;DHT22;42072;48.044;14.416;2023-05-28T14:26:43;25.00;93.40
38359;DHT22;42072;48.044;14.416;2023-05-28T14:29:11;25.10;93.70
38359;DHT22;42072;48.044;14.416;2023-05-28T14:31:39;25.30;93.40
38359;DHT22;42072;48.044;14.416;2023-05-28T14:34:07;25.40;91.80
38359;DHT22;42072;48.044;14.416;2023-05-28T14:36:35;25.20;90.60
38359;DHT22;42072;48.044;14.416;2023-05-28T14:39:03;25.30;91.40
38359;DHT22;42072;48.044;14.416;2023-05-28T14:41:30;25.50;92.50
38359;DHT22;42072;48.044;14.416;2023-05-28T14:43:58;25.50;91.50
38359;DHT22;42072;48.044;14.416;2023-05-28T14:46:25;25.50;89.10
38359;DHT22;42072;48.044;14.416;2023-05-28T14:48:52;25.60;90.60
38359;DHT22;42072;48.044;14.416;2023-05-28T14:51:20;25.40;91.30
38359;DHT22;42072;48.044;14.416;2023-05-28T14:53:47;25.60;90.30
38359;DHT22;42072;48.044;14.416;2023-05-28T14:56:14;25.80;87.50
38359;DHT22;42072;48.044;14.416;2023-05-28T14:58:42;25.90;87.60
38359;DHT22;42072;48.044;14.416;2023-05-28T15:01:09;25.80;83.60
38359;DHT22;42072;48.044;14.416;2023-05-28T15:03:37;25.80;86.20
38359;DHT22;42072;48.044;14.416;2023-05-28T15:06:04;25.70;86.70
38359;DHT22;42072;48.044;14.416;2023-05-28T15:08:32;25.80;88.00
38359;DHT22;42072;48.044;14.416;2023-05-28T15:11:01;25.40;88.00
38359;DHT22;42072;48.044;14.416;2023-05-28T15:13:29;25.50;88.30
38359;DHT22;42072;48.044;14.416;2023-05-28T15:15:56;25.60;87.00
38359;DHT22;42072;48.044;14.416;2023-05-28T15:18:24;25.70;90.20
38359;DHT22;42072;48.044;14.416;2023-05-28T15:20:51;26.00;88.70
38359;DHT22;42072;48.044;14.416;2023-05-28T15:23:19;25.80;89.60
38359;DHT22;42072;48.044;14.416;2023-05-28T15:25:47;25.60;88.00
38359;DHT22;42072;48.044;14.416;2023-05-28T15:28:14;25.70;90.00
38359;DHT22;42072;48.044;14.416;2023-05-28T15:30:42;25.60;87.80
38359;DHT22;42072;48.044;14.416;2023-05-28T15:33:10;25.60;90.50